D/T METAR WX W/DIR W/SPE G/SPE TEMP DEWP
23/03/19 12:00 EIKN 231200Z 23005KT 150V310 9999 BKN022 SCT042 BKN300 08/03 Q1034 NOSIG SW (230°) 5.8mph 8°C 3°C
23/03/19 11:30 EIKN 231130Z 27004KT 210V320 9999 SCT022 SCT042 BKN300 08/02 Q1034 NOSIG W (270°) 4.6mph 8°C 2°C
23/03/19 11:00 EIKN 231100Z 28005KT 220V310 9999 SCT022 BKN300 07/01 Q1034 NOSIG W (280°) 5.8mph 7°C 1°C
23/03/19 10:30 EIKN 231030Z 27005KT 230V320 9999 FEW020 BKN300 07/02 Q1033 NOSIG W (270°) 5.8mph 7°C 2°C
23/03/19 10:00 EIKN 231000Z 27004KT 220V310 9999 FEW020 BKN300 06/02 Q1033 NOSIG W (270°) 4.6mph 6°C 2°C
23/03/19 09:30 EIKN 230930Z 27005KT 240V320 9999 FEW020 BKN300 06/02 Q1033 NOSIG W (270°) 5.8mph 6°C 2°C
23/03/19 09:00 EIKN 230900Z 24005KT 210V270 9999 FEW042 BKN300 05/02 Q1033 NOSIG WSW (240°) 5.8mph 5°C 2°C
23/03/19 08:30 EIKN 230830Z 25004KT 9999 FEW040 BKN300 04/02 Q1033 NOSIG WSW (250°) 4.6mph 4°C 2°C
23/03/19 08:00 EIKN 230800Z 26005KT 9999 FEW048 BKN280 03/01 Q1032 NOSIG W (260°) 5.8mph 3°C 1°C
23/03/19 07:30 EIKN 230730Z 25004KT 9999 FEW048 SCT280 02/01 Q1032 NOSIG WSW (250°) 4.6mph 2°C 1°C
23/03/19 07:00 EIKN 230700Z 25004KT 9999 FEW048 SCT280 02/00 Q1032 NOSIG WSW (250°) 4.6mph 2°C 0°C
23/03/19 06:00 EIKN 230600Z 27006KT 9999 FEW045 SCT280 03/01 Q1031 NOSIG W (270°) 6.9mph 3°C 1°C
22/03/19 20:00 EIKN 222000Z 26006KT 9999 FEW018 SCT280 04/03 Q1026 NOSIG W (260°) 6.9mph 4°C 3°C
22/03/19 19:30 EIKN 221930Z 28007KT 9999 FEW018 SCT038 05/03 Q1026 NOSIG W (280°) 8.1mph 5°C 3°C
22/03/19 19:00 EIKN 221900Z 29010KT 9999 FEW018 SCT040 BKN280 05/03 Q1025 NOSIG WNW (290°) 11.5mph 5°C 3°C
22/03/19 18:30 EIKN 221830Z 26016KT 9999 FEW018 SCT023 BKN300 06/03 Q1025 NOSIG W (260°) 18.4mph 6°C 3°C
22/03/19 18:00 EIKN 221800Z 27014KT 240V310 9999 FEW016 BKN300 07/03 Q1024 NOSIG W (270°) 16.1mph 7°C 3°C
22/03/19 17:30 EIKN 221730Z 26017KT 9999 FEW016 BKN300 07/03 Q1024 NOSIG W (260°) 19.6mph 7°C 3°C
22/03/19 17:00 EIKN 221700Z 26015KT 9999 FEW016 SCT044 BKN300 07/02 Q1023 NOSIG W (260°) 17.3mph 7°C 2°C
22/03/19 16:30 EIKN 221630Z 26015KT 9999 FEW016 BKN300 08/02 Q1023 NOSIG W (260°) 17.3mph 8°C 2°C
22/03/19 16:00 EIKN 221600Z 27022KT 9999 FEW016 BKN300 08/02 Q1023 NOSIG W (270°) 25.3mph 8°C 2°C
22/03/19 15:30 EIKN 221530Z 27020KT 9999 FEW016 BKN300 08/03 Q1022 NOSIG W (270°) 23.0mph 8°C 3°C
22/03/19 15:00 EIKN 221500Z 27020KT 9999 FEW016 SCT045 BKN300 09/04 Q1022 NOSIG W (270°) 23.0mph 9°C 4°C
22/03/19 14:30 EIKN 221430Z 26017KT 9999 FEW016 BKN300 09/03 Q1021 NOSIG W (260°) 19.6mph 9°C 3°C
22/03/19 14:00 EIKN 221400Z 26019KT 9999 FEW016 BKN300 08/03 Q1021 NOSIG W (260°) 21.9mph 8°C 3°C
22/03/19 13:30 EIKN 221330Z 26020KT 9999 FEW016 BKN300 08/04 Q1021 NOSIG W (260°) 23.0mph 8°C 4°C
22/03/19 12:30 EIKN 221230Z 26016KT 9999 SCT022 BKN300 09/06 Q1020 NOSIG W (260°) 18.4mph 9°C 6°C
22/03/19 12:00 EIKN 221200Z 27018KT 9999 SCT020 BKN300 09/06 Q1020 NOSIG W (270°) 20.7mph 9°C 6°C
22/03/19 11:30 EIKN 221130Z 25014KT 230V290 9999 SCT018 SCT040 BKN300 09/07 Q1019 NOSIG WSW (250°) 16.1mph 9°C 7°C
22/03/19 11:00 EIKN 221100Z 25012KT 9999 FEW018 SCT040 BKN100 08/06 Q1019 NOSIG WSW (250°) 13.8mph 8°C 6°C
22/03/19 10:30 EIKN 221030Z 25011KT 210V270 9999 -RA FEW010 SCT034 BKN080 07/07 Q1019 NOSIG -RA WSW (250°) 12.7mph 7°C 7°C
22/03/19 10:00 EIKN 221000Z 25010KT 9999 -RA FEW009 SCT024 BKN080 07/07 Q1018 BECMG 9999 -RA WSW (250°) 11.5mph 7°C 7°C
22/03/19 09:30 EIKN 220930Z 26014KT 9999 -RA SCT008 BKN024 BKN080 07/07 Q1018 BECMG 9999 -RA W (260°) 16.1mph 7°C 7°C
22/03/19 09:00 EIKN 220900Z 26015KT 6000 -RADZ BKN008 OVC016 07/07 Q1018 BECMG 9999 -RA -DZ W (260°) 17.3mph 7°C 7°C
22/03/19 08:30 EIKN 220830Z 21016G26KT 180V250 5000 -RADZ BKN004 OVC008 09/08 Q1017 TEMPO 3000 -RA -DZ SSW (210°) 18.4mph 29.9mph 9°C 8°C
22/03/19 08:00 EIKN 220800Z 21014KT 170V240 5000 -RADZ BKN004 OVC008 09/08 Q1016 TEMPO 3000 -RA -DZ SSW (210°) 16.1mph 9°C 8°C
22/03/19 07:30 EIKN 220730Z 21017KT 170V240 6000 -RADZ BKN004 OVC009 08/08 Q1016 TEMPO 3000 -RA -DZ SSW (210°) 19.6mph 8°C 8°C
22/03/19 07:00 EIKN 220700Z 19015G25KT 160V230 3000 -RADZ BKN004 OVC009 08/08 Q1016 NOSIG -RA -DZ S (190°) 17.3mph 28.8mph 8°C 8°C
22/03/19 06:00 EIKN 220600Z 20014KT 150V230 4000 -RADZ BKN004 OVC009 08/08 Q1017 NOSIG -RA -DZ SSW (200°) 16.1mph 8°C 8°C
22/03/19 05:30 EIKN 220530Z 19016KT 170V230 7000 -DZ BKN006 OVC010 08/08 Q1017 TEMPO 3000 BKN004 -DZ S (190°) 18.4mph 8°C 8°C
22/03/19 05:00 EIKN 220500Z 19016G26KT 150V230 8000 -DZ BKN006 OVC012 08/08 Q1017 NOSIG -DZ S (190°) 18.4mph 29.9mph 8°C 8°C
21/03/19 20:00 EIKN 212000Z 18008KT 160V220 9999 BKN014 BKN024 09/08 Q1024 NOSIG S (180°) 9.2mph 9°C 8°C
21/03/19 19:30 EIKN 211930Z 18009KT 150V220 9999 -DZ BKN012 BKN023 10/09 Q1025 NOSIG -DZ S (180°) 10.4mph 10°C 9°C
21/03/19 19:00 EIKN 211900Z 18009KT 140V210 9999 -DZ BKN011 BKN023 10/09 Q1025 NOSIG -DZ S (180°) 10.4mph 10°C 9°C
21/03/19 18:30 EIKN 211830Z 19009KT 160V220 9999 BKN014 BKN025 10/09 Q1025 NOSIG S (190°) 10.4mph 10°C 9°C
21/03/19 18:00 EIKN 211800Z 18009KT 150V220 9999 BKN014 BKN024 10/09 Q1025 NOSIG S (180°) 10.4mph 10°C 9°C
21/03/19 17:30 EIKN 211730Z 18012KT 9999 SCT014 BKN022 BKN300 10/09 Q1026 NOSIG S (180°) 13.8mph 10°C 9°C
21/03/19 17:00 EIKN 211700Z 19008KT 140V230 9999 BKN013 BKN027 BKN300 10/09 Q1026 NOSIG S (190°) 9.2mph 10°C 9°C
21/03/19 16:30 EIKN 211630Z 21010KT 180V240 9999 SCT014 BKN024 BKN300 10/09 Q1027 NOSIG SSW (210°) 11.5mph 10°C 9°C
21/03/19 16:00 EIKN 211600Z 19014KT 170V230 9999 BKN014 BKN024 10/08 Q1027 NOSIG S (190°) 16.1mph 10°C 8°C
21/03/19 15:30 EIKN 211530Z 19010KT 160V230 9999 BKN014 BKN025 10/08 Q1027 NOSIG S (190°) 11.5mph 10°C 8°C
21/03/19 15:00 EIKN 211500Z 20015KT 170V230 9999 BKN014 BKN024 10/08 Q1027 NOSIG SSW (200°) 17.3mph 10°C 8°C
21/03/19 14:30 EIKN 211430Z 19015KT 160V220 9999 BKN015 BKN024 11/09 Q1028 NOSIG S (190°) 17.3mph 11°C 9°C
21/03/19 14:00 EIKN 211400Z 20014KT 160V240 9999 -DZ BKN013 BKN024 10/09 Q1028 NOSIG -DZ SSW (200°) 16.1mph 10°C 9°C
21/03/19 13:30 EIKN 211330Z 21014KT 180V240 9999 BKN012 BKN040 10/09 Q1029 NOSIG SSW (210°) 16.1mph 10°C 9°C
21/03/19 13:00 EIKN 211300Z 20013KT 170V240 9999 -DZ FEW009 BKN012 BKN050 10/09 Q1029 NOSIG -DZ SSW (200°) 15.0mph 10°C 9°C
21/03/19 12:30 EIKN 211230Z 20013KT 180V240 9999 BKN013 BKN050 11/09 Q1029 NOSIG SSW (200°) 15.0mph 11°C 9°C
21/03/19 12:00 EIKN 211200Z 20012KT 170V250 9999 BKN011 BKN050 11/09 Q1029 NOSIG SSW (200°) 13.8mph 11°C 9°C
21/03/19 11:30 EIKN 211130Z 21012KT 180V240 9999 BKN007 BKN050 11/09 Q1029 NOSIG SSW (210°) 13.8mph 11°C 9°C
21/03/19 11:00 EIKN 211100Z 20011KT 150V230 9999 BKN007 BKN010 10/09 Q1029 NOSIG SSW (200°) 12.7mph 10°C 9°C
21/03/19 10:30 EIKN 211030Z 20010G20KT 170V240 9999 BKN006 OVC009 10/10 Q1029 NOSIG SSW (200°) 11.5mph 23.0mph 10°C 10°C
21/03/19 10:00 EIKN 211000Z 21010KT 150V250 9999 BKN004 OVC008 10/09 Q1030 NOSIG SSW (210°) 11.5mph 10°C 9°C
21/03/19 09:30 EIKN 210930Z 21010KT 180V240 9999 BKN003 OVC008 10/10 Q1030 NOSIG SSW (210°) 11.5mph 10°C 10°C
21/03/19 09:00 EIKN 210900Z 20009KT 9999 BKN003 OVC008 09/09 Q1030 NOSIG SSW (200°) 10.4mph 9°C 9°C
21/03/19 08:30 EIKN 210830Z 21009KT 180V260 9999 BKN002 OVC006 09/09 Q1029 NOSIG SSW (210°) 10.4mph 9°C 9°C
21/03/19 08:00 EIKN 210800Z 21006KT 160V240 9999 BKN002 OVC006 09/09 Q1029 NOSIG SSW (210°) 6.9mph 9°C 9°C
21/03/19 07:30 EIKN 210730Z 21009KT 170V240 0600 FG VV003 09/09 Q1029 NOSIG FG SSW (210°) 10.4mph 9°C 9°C
21/03/19 07:00 EIKN 210700Z 21007KT 9999 BKN003 OVC008 09/09 Q1029 NOSIG SSW (210°) 8.1mph 9°C 9°C
21/03/19 06:30 EIKN 210630Z 21007KT 170V230 9999 BKN004 OVC010 09/09 Q1029 NOSIG SSW (210°) 8.1mph 9°C 9°C
20/03/19 22:00 EIKN 202200Z 21010KT 170V230 9999 BKN007 BKN012 09/09 Q1027 NOSIG SSW (210°) 11.5mph 9°C 9°C
20/03/19 21:30 EIKN 202130Z 21009KT 180V240 9999 BKN005 BKN012 09/09 Q1028 NOSIG SSW (210°) 10.4mph 9°C 9°C
20/03/19 21:00 EIKN 202100Z 21008KT 170V270 9999 -DZ BKN005 BKN010 09/09 Q1028 NOSIG -DZ SSW (210°) 9.2mph 9°C 9°C
20/03/19 20:30 EIKN 202030Z 21008KT 170V240 9999 BKN005 BKN009 10/09 Q1027 NOSIG SSW (210°) 9.2mph 10°C 9°C
20/03/19 20:00 EIKN 202000Z 21008KT 170V270 9999 BKN006 BKN012 10/09 Q1027 NOSIG SSW (210°) 9.2mph 10°C 9°C
20/03/19 19:30 EIKN 201930Z 20008KT 150V230 9999 BKN008 BKN015 10/09 Q1027 NOSIG SSW (200°) 9.2mph 10°C 9°C
20/03/19 19:00 EIKN 201900Z 18007KT 140V230 9999 -DZ BKN006 BKN015 BKN024 10/09 Q1027 NOSIG -DZ S (180°) 8.1mph 10°C 9°C
20/03/19 18:30 EIKN 201830Z 20009KT 170V230 9999 SCT009 SCT015 BKN030 10/09 Q1027 NOSIG SSW (200°) 10.4mph 10°C 9°C
20/03/19 18:00 EIKN 201800Z 22012KT 190V250 9999 SCT008 SCT015 BKN023 11/09 Q1026 NOSIG SW (220°) 13.8mph 11°C 9°C
20/03/19 17:30 EIKN 201730Z 23011KT 210V270 9999 SCT008 BKN015 BKN024 11/10 Q1026 NOSIG SW (230°) 12.7mph 11°C 10°C
20/03/19 17:00 EIKN 201700Z 23011KT 200V260 9999 -DZ BKN008 BKN024 11/10 Q1026 NOSIG -DZ SW (230°) 12.7mph 11°C 10°C
20/03/19 16:30 EIKN 201630Z 22010KT 9999 BKN008 BKN022 11/10 Q1026 NOSIG SW (220°) 11.5mph 11°C 10°C
20/03/19 16:00 EIKN 201600Z 22009KT 180V250 9999 -DZ BKN007 BKN024 12/11 Q1026 NOSIG -DZ SW (220°) 10.4mph 12°C 11°C
20/03/19 15:30 EIKN 201530Z 21011KT 170V240 9999 BKN006 BKN023 12/11 Q1026 NOSIG SSW (210°) 12.7mph 12°C 11°C
20/03/19 15:00 EIKN 201500Z 21011KT 180V240 9999 BKN007 BKN024 12/11 Q1026 NOSIG SSW (210°) 12.7mph 12°C 11°C
20/03/19 14:30 EIKN 201430Z 21013KT 180V270 9999 BKN007 BKN025 12/11 Q1026 NOSIG SSW (210°) 15.0mph 12°C 11°C
20/03/19 14:00 EIKN 201400Z 22013KT 180V240 9999 BKN006 BKN027 12/11 Q1027 NOSIG SW (220°) 15.0mph 12°C 11°C
20/03/19 13:30 EIKN 201330Z 21012KT 9999 BKN007 BKN027 BKN045 13/11 Q1027 NOSIG SSW (210°) 13.8mph 13°C 11°C
20/03/19 13:00 EIKN 201300Z 22012KT 170V240 8000 BKN007 BKN027 12/11 Q1027 NOSIG SW (220°) 13.8mph 12°C 11°C
20/03/19 12:30 EIKN 201230Z 22012KT 180V250 9999 BKN007 BKN028 12/11 Q1027 NOSIG SW (220°) 13.8mph 12°C 11°C
20/03/19 12:00 EIKN 201200Z 21014KT 180V250 9999 BKN006 BKN016 11/10 Q1027 NOSIG SSW (210°) 16.1mph 11°C 10°C
20/03/19 11:30 EIKN 201130Z 21016KT 180V240 9999 BKN006 BKN016 11/10 Q1027 NOSIG SSW (210°) 18.4mph 11°C 10°C
20/03/19 11:00 EIKN 201100Z 21015KT 180V270 9999 BKN004 BKN018 11/11 Q1027 NOSIG SSW (210°) 17.3mph 11°C 11°C
20/03/19 10:30 EIKN 201030Z 21012KT 9999 BKN003 BKN008 10/10 Q1027 TEMPO 3000 SSW (210°) 13.8mph 10°C 10°C
20/03/19 10:00 EIKN 201000Z 21012KT 8000 BKN003 OVC008 10/10 Q1027 TEMPO 3000 SSW (210°) 13.8mph 10°C 10°C
20/03/19 09:30 EIKN 200930Z 20011KT 170V240 4500 BR OVC003 10/10 Q1027 TEMPO 3000 BR SSW (200°) 12.7mph 10°C 10°C
20/03/19 09:00 EIKN 200900Z 19010KT 150V230 0600 R26/0600D FG VV003 09/09 Q1027 NOSIG FG S (190°) 11.5mph 9°C 9°C
20/03/19 08:30 EIKN 200830Z 20008KT 160V240 0500 R26/0500U FG VV002 09/09 Q1027 NOSIG FG SSW (200°) 9.2mph 9°C 9°C
20/03/19 08:00 EIKN 200800Z 19010KT 160V230 0400 R26/0300 FG VV002 09/09 Q1027 NOSIG FG S (190°) 11.5mph 9°C 9°C
20/03/19 07:30 EIKN 200730Z 20008KT 170V240 0700 FG VV003 08/08 Q1027 NOSIG FG SSW (200°) 9.2mph 8°C 8°C
20/03/19 07:00 EIKN 200700Z 20007KT 160V230 0700 FG OVC003 08/08 Q1026 NOSIG FG SSW (200°) 8.1mph 8°C 8°C
20/03/19 06:30 EIKN 200630Z 21008KT 170V240 0700 FG OVC003 08/08 Q1026 NOSIG FG SSW (210°) 9.2mph 8°C 8°C
20/03/19 06:00 EIKN 200600Z 21009KT 170V240 0500 FG OVC003 08/08 Q1026 NOSIG FG SSW (210°) 10.4mph 8°C 8°C
19/03/19 19:00 EIKN 191900Z 23007KT 190V250 9999 SCT005 BKN060 08/08 Q1025 NOSIG SW (230°) 8.1mph 8°C 8°C
19/03/19 18:30 EIKN 191830Z 26009KT 9999 BKN005 SCT012 09/08 Q1025 NOSIG W (260°) 10.4mph 9°C 8°C
19/03/19 18:00 EIKN 191800Z 26009KT 9999 BKN005 SCT012 09/08 Q1025 NOSIG W (260°) 10.4mph 9°C 8°C
19/03/19 17:30 EIKN 191730Z 27010KT 9999 BKN005 09/08 Q1025 NOSIG W (270°) 11.5mph 9°C 8°C
19/03/19 17:00 EIKN 191700Z 27014KT 9999 BKN005 10/09 Q1025 NOSIG W (270°) 16.1mph 10°C 9°C
19/03/19 16:30 EIKN 191630Z 24008KT 190V280 9999 BKN003 09/09 Q1025 NOSIG WSW (240°) 9.2mph 9°C 9°C
19/03/19 16:00 EIKN 191600Z 25010KT 210V280 9999 BKN004 10/09 Q1024 NOSIG WSW (250°) 11.5mph 10°C 9°C
19/03/19 15:30 EIKN 191530Z 27011KT 230V290 9999 BKN006 10/09 Q1024 NOSIG W (270°) 12.7mph 10°C 9°C
19/03/19 15:00 EIKN 191500Z 25011KT 9999 BKN008 11/09 Q1023 NOSIG WSW (250°) 12.7mph 11°C 9°C
19/03/19 14:30 EIKN 191430Z 25013KT 9999 BKN008 11/09 Q1024 NOSIG WSW (250°) 15.0mph 11°C 9°C
19/03/19 14:00 EIKN 191400Z 27015KT 9999 BKN007 10/09 Q1024 NOSIG W (270°) 17.3mph 10°C 9°C
19/03/19 13:30 EIKN 191330Z 26014KT 220V310 9999 SCT008 SCT021 11/10 Q1023 NOSIG W (260°) 16.1mph 11°C 10°C
19/03/19 13:00 EIKN 191300Z 26012KT 9999 BKN008 SCT018 11/10 Q1023 NOSIG W (260°) 13.8mph 11°C 10°C
19/03/19 12:30 EIKN 191230Z 26011KT 9999 BKN008 SCT018 11/10 Q1023 NOSIG W (260°) 12.7mph 11°C 10°C
19/03/19 12:00 EIKN 191200Z 25010KT 220V280 9999 SCT014 SCT022 11/11 Q1023 NOSIG WSW (250°) 11.5mph 11°C 11°C
19/03/19 11:30 EIKN 191130Z 24009KT 210V280 9999 BKN008 BKN017 11/10 Q1023 BECMG BKN010 WSW (240°) 10.4mph 11°C 10°C
19/03/19 11:00 EIKN 191100Z 24012KT 190V270 9999 BKN004 BKN011 10/10 Q1022 BECMG BKN005 WSW (240°) 13.8mph 10°C 10°C
19/03/19 10:30 EIKN 191030Z 23012KT 200V260 9999 BKN003 BKN010 10/10 Q1022 BECMG BKN005 SW (230°) 13.8mph 10°C 10°C
19/03/19 10:00 EIKN 191000Z 25011KT 220V280 1100 R26/0800 BR BKN003 BKN008 10/10 Q1022 BECMG 3000 BKN005 BR WSW (250°) 12.7mph 10°C 10°C
19/03/19 09:30 EIKN 190930Z 23007KT 170V260 0500 R26/0400 -DZ FG BKN003 BKN009 09/09 Q1022 TEMPO BKN001 -DZ FG SW (230°) 8.1mph 9°C 9°C
19/03/19 09:00 EIKN 190900Z 21009KT 0400 R26/0300 -DZ FG BKN002 BKN008 09/09 Q1022 TEMPO BKN001 -DZ FG SSW (210°) 10.4mph 9°C 9°C
19/03/19 08:30 EIKN 190830Z 21010KT 190V250 0500 R26/0300 -DZ FG BKN003 BKN008 09/09 Q1022 TEMPO BKN001 -DZ FG SSW (210°) 11.5mph 9°C 9°C
19/03/19 08:00 EIKN 190800Z 21008KT 180V240 0400 R26/0200 -DZ FG VV002 08/08 Q1021 TEMPO BKN001 -DZ FG SSW (210°) 9.2mph 8°C 8°C
19/03/19 07:30 EIKN 190730Z 20009KT 160V230 0400 FG VV002 08/08 Q1021 TEMPO BKN001 FG SSW (200°) 10.4mph 8°C 8°C
19/03/19 07:00 EIKN 190700Z 20008KT 170V240 0400 FG BKN002 BKN007 08/08 Q1021 TEMPO BKN001 FG SSW (200°) 9.2mph 8°C 8°C
19/03/19 06:00 EIKN 190600Z 21012KT 180V240 1800 BR BKN004 BKN015 07/07 Q1021 NOSIG BR SSW (210°) 13.8mph 7°C 7°C
18/03/19 19:00 EIKN 181900Z 27008KT 9999 -DZ SCT003 BKN013 BKN030 08/08 Q1022 NOSIG -DZ W (270°) 9.2mph 8°C 8°C
18/03/19 18:30 EIKN 181830Z 25007KT 2000 -DZ BKN004 OVC009 08/08 Q1022 NOSIG -DZ WSW (250°) 8.1mph 8°C 8°C
18/03/19 18:00 EIKN 181800Z 27006KT 0900 -RADZ FG BKN002 OVC008 08/08 Q1022 NOSIG -RA -DZ FG W (270°) 6.9mph 8°C 8°C
18/03/19 17:30 EIKN 181730Z 30009KT 280V350 8000 -RADZ SCT003 BKN009 OVC018 07/07 Q1021 NOSIG -RA -DZ WNW (300°) 10.4mph 7°C 7°C
18/03/19 17:00 EIKN 181700Z 31007KT 280V340 5000 -RADZ BKN003 OVC009 08/08 Q1021 NOSIG -RA -DZ NW (310°) 8.1mph 8°C 8°C
18/03/19 16:30 EIKN 181630Z 29011KT 7000 -RADZ BKN003 OVC008 08/08 Q1021 NOSIG -RA -DZ WNW (290°) 12.7mph 8°C 8°C
18/03/19 16:00 EIKN 181600Z 30010KT 7000 -RADZ BKN004 OVC011 08/08 Q1021 NOSIG -RA -DZ WNW (300°) 11.5mph 8°C 8°C
18/03/19 15:30 EIKN 181530Z 30011KT 9000 -RADZ BKN004 OVC012 08/08 Q1020 NOSIG -RA -DZ WNW (300°) 12.7mph 8°C 8°C
18/03/19 15:00 EIKN 181500Z 29011KT 5000 -RADZ BKN006 OVC010 08/08 Q1020 NOSIG -RA -DZ WNW (290°) 12.7mph 8°C 8°C
18/03/19 14:30 EIKN 181430Z 29015KT 9000 -RADZ BKN005 OVC010 08/08 Q1020 NOSIG -RA -DZ WNW (290°) 17.3mph 8°C 8°C
18/03/19 14:00 EIKN 181400Z 29013G23KT 9999 -RADZ SCT004 BKN008 OVC014 08/08 Q1020 NOSIG -RA -DZ WNW (290°) 15.0mph 26.5mph 8°C 8°C
18/03/19 13:30 EIKN 181330Z 29012KT 260V320 5000 -RADZ BKN003 OVC009 08/08 Q1020 NOSIG -RA -DZ WNW (290°) 13.8mph 8°C 8°C
18/03/19 13:00 EIKN 181300Z 29014KT 9999 -RA BKN010 BKN018 OVC026 08/08 Q1019 NOSIG -RA WNW (290°) 16.1mph 8°C 8°C
18/03/19 12:30 EIKN 181230Z 29016KT 9999 -RA BKN010 BKN015 OVC026 08/08 Q1019 NOSIG -RA WNW (290°) 18.4mph 8°C 8°C
18/03/19 12:00 EIKN 181200Z 29014KT 9999 -RA BKN012 BKN018 BKN028 08/07 Q1019 NOSIG -RA WNW (290°) 16.1mph 8°C 7°C
18/03/19 11:30 EIKN 181130Z 29016KT 9999 -RA SCT009 BKN015 BKN028 08/08 Q1019 NOSIG -RA WNW (290°) 18.4mph 8°C 8°C